sensor_id;sensor_type;location;lat;lon;timestamp;P1;durP1;ratioP1;P2;durP2;ratioP2
78893;SDS011;68282;42.698;23.350;2023-04-15T00:00:29;12.77;;;5.57;;
78893;SDS011;68282;42.698;23.350;2023-04-15T00:02:55;9.73;;;4.88;;
78893;SDS011;68282;42.698;23.350;2023-04-15T00:05:22;7.78;;;4.97;;
78893;SDS011;68282;42.698;23.350;2023-04-15T00:07:47;10.70;;;6.13;;
78893;SDS011;68282;42.698;23.350;2023-04-15T00:10:12;8.88;;;5.40;;
78893;SDS011;68282;42.698;23.350;2023-04-15T00:12:40;12.18;;;5.30;;
78893;SDS011;68282;42.698;23.350;2023-04-15T00:15:07;9.95;;;4.85;;
78893;SDS011;68282;42.698;23.350;2023-04-15T00:17:33;10.63;;;5.45;;
78893;SDS011;68282;42.698;23.350;2023-04-15T00:19:59;9.90;;;6.10;;
78893;SDS011;68282;42.698;23.350;2023-04-15T00:22:24;9.65;;;5.18;;
78893;SDS011;68282;42.698;23.350;2023-04-15T00:24:51;10.18;;;4.90;;
78893;SDS011;68282;42.698;23.350;2023-04-15T00:27:17;9.15;;;4.63;;
78893;SDS011;68282;42.698;23.350;2023-04-15T00:29:42;10.50;;;5.35;;
78893;SDS011;68282;42.698;23.350;2023-04-15T00:32:08;9.73;;;5.10;;
78893;SDS011;68282;42.698;23.350;2023-04-15T00:34:33;10.27;;;6.20;;
78893;SDS011;68282;42.698;23.350;2023-04-15T00:36:58;7.68;;;4.80;;
78893;SDS011;68282;42.698;23.350;2023-04-15T00:39:24;13.25;;;5.63;;
78893;SDS011;68282;42.698;23.350;2023-04-15T00:41:50;7.97;;;5.88;;
78893;SDS011;68282;42.698;23.350;2023-04-15T00:44:15;11.02;;;5.50;;
78893;SDS011;68282;42.698;23.350;2023-04-15T00:46:42;7.75;;;4.93;;
78893;SDS011;68282;42.698;23.350;2023-04-15T00:49:09;8.45;;;5.88;;
78893;SDS011;68282;42.698;23.350;2023-04-15T00:51:35;9.32;;;5.57;;
78893;SDS011;68282;42.698;23.350;2023-04-15T00:54:04;9.07;;;5.20;;
78893;SDS011;68282;42.698;23.350;2023-04-15T00:56:32;11.05;;;5.18;;
78893;SDS011;68282;42.698;23.350;2023-04-15T00:58:59;9.25;;;4.97;;
78893;SDS011;68282;42.698;23.350;2023-04-15T01:01:26;8.57;;;5.65;;
78893;SDS011;68282;42.698;23.350;2023-04-15T01:03:54;11.65;;;5.78;;
78893;SDS011;68282;42.698;23.350;2023-04-15T01:06:20;8.70;;;5.22;;
78893;SDS011;68282;42.698;23.350;2023-04-15T01:08:46;10.40;;;5.63;;
78893;SDS011;68282;42.698;23.350;2023-04-15T01:11:11;9.30;;;5.20;;
78893;SDS011;68282;42.698;23.350;2023-04-15T01:13:37;11.63;;;5.45;;
78893;SDS011;68282;42.698;23.350;2023-04-15T01:16:05;8.85;;;5.07;;
78893;SDS011;68282;42.698;23.350;2023-04-15T01:18:32;10.00;;;4.97;;
78893;SDS011;68282;42.698;23.350;2023-04-15T01:20:59;8.85;;;4.70;;
78893;SDS011;68282;42.698;23.350;2023-04-15T01:23:26;6.45;;;4.15;;
78893;SDS011;68282;42.698;23.350;2023-04-15T01:25:52;8.50;;;4.40;;
78893;SDS011;68282;42.698;23.350;2023-04-15T01:28:18;9.30;;;5.70;;
78893;SDS011;68282;42.698;23.350;2023-04-15T01:30:44;9.65;;;4.88;;
78893;SDS011;68282;42.698;23.350;2023-04-15T01:33:09;6.90;;;3.85;;
78893;SDS011;68282;42.698;23.350;2023-04-15T01:35:35;7.95;;;4.45;;
78893;SDS011;68282;42.698;23.350;2023-04-15T01:38:05;8.00;;;4.43;;
78893;SDS011;68282;42.698;23.350;2023-04-15T01:40:32;6.97;;;4.20;;
78893;SDS011;68282;42.698;23.350;2023-04-15T01:42:58;5.72;;;4.00;;
78893;SDS011;68282;42.698;23.350;2023-04-15T01:45:24;10.15;;;4.25;;
78893;SDS011;68282;42.698;23.350;2023-04-15T01:47:49;7.50;;;4.15;;
78893;SDS011;68282;42.698;23.350;2023-04-15T01:50:15;7.40;;;4.10;;
78893;SDS011;68282;42.698;23.350;2023-04-15T01:52:40;7.07;;;3.75;;
78893;SDS011;68282;42.698;23.350;2023-04-15T01:55:06;9.85;;;3.83;;
78893;SDS011;68282;42.698;23.350;2023-04-15T01:57:32;7.05;;;3.80;;
78893;SDS011;68282;42.698;23.350;2023-04-15T01:59:58;7.20;;;4.53;;
78893;SDS011;68282;42.698;23.350;2023-04-15T02:02:24;8.73;;;5.38;;
78893;SDS011;68282;42.698;23.350;2023-04-15T02:04:49;7.53;;;4.97;;
78893;SDS011;68282;42.698;23.350;2023-04-15T02:07:15;13.57;;;5.75;;
78893;SDS011;68282;42.698;23.350;2023-04-15T02:09:40;12.30;;;5.60;;
78893;SDS011;68282;42.698;23.350;2023-04-15T02:12:07;9.02;;;5.40;;
78893;SDS011;68282;42.698;23.350;2023-04-15T02:14:33;12.95;;;5.60;;
78893;SDS011;68282;42.698;23.350;2023-04-15T02:16:59;10.15;;;5.30;;
78893;SDS011;68282;42.698;23.350;2023-04-15T02:19:31;11.80;;;5.38;;
78893;SDS011;68282;42.698;23.350;2023-04-15T02:21:59;10.60;;;4.68;;
78893;SDS011;68282;42.698;23.350;2023-04-15T02:24:28;8.55;;;4.43;;
78893;SDS011;68282;42.698;23.350;2023-04-15T02:26:55;8.10;;;5.05;;
78893;SDS011;68282;42.698;23.350;2023-04-15T02:29:21;10.35;;;7.28;;
78893;SDS011;68282;42.698;23.350;2023-04-15T02:31:47;9.10;;;6.72;;
78893;SDS011;68282;42.698;23.350;2023-04-15T02:34:13;10.73;;;6.18;;
78893;SDS011;68282;42.698;23.350;2023-04-15T02:36:39;8.13;;;5.53;;
78893;SDS011;68282;42.698;23.350;2023-04-15T02:39:05;11.05;;;6.00;;
78893;SDS011;68282;42.698;23.350;2023-04-15T02:41:30;7.55;;;4.45;;
78893;SDS011;68282;42.698;23.350;2023-04-15T02:43:56;7.32;;;4.40;;
78893;SDS011;68282;42.698;23.350;2023-04-15T02:46:21;6.57;;;4.13;;
78893;SDS011;68282;42.698;23.350;2023-04-15T02:48:47;7.63;;;4.40;;
78893;SDS011;68282;42.698;23.350;2023-04-15T02:51:14;8.07;;;4.72;;
78893;SDS011;68282;42.698;23.350;2023-04-15T02:53:40;12.38;;;4.40;;
78893;SDS011;68282;42.698;23.350;2023-04-15T02:56:06;8.65;;;4.20;;
78893;SDS011;68282;42.698;23.350;2023-04-15T02:58:32;8.05;;;4.60;;
78893;SDS011;68282;42.698;23.350;2023-04-15T03:00:59;8.00;;;4.68;;
78893;SDS011;68282;42.698;23.350;2023-04-15T03:03:24;5.95;;;3.60;;
78893;SDS011;68282;42.698;23.350;2023-04-15T03:05:52;4.97;;;3.78;;
78893;SDS011;68282;42.698;23.350;2023-04-15T03:08:17;6.88;;;4.35;;
78893;SDS011;68282;42.698;23.350;2023-04-15T03:10:42;6.07;;;3.88;;
78893;SDS011;68282;42.698;23.350;2023-04-15T03:13:08;6.97;;;3.97;;
78893;SDS011;68282;42.698;23.350;2023-04-15T03:15:33;5.53;;;3.20;;
78893;SDS011;68282;42.698;23.350;2023-04-15T03:17:59;6.80;;;3.30;;
78893;SDS011;68282;42.698;23.350;2023-04-15T03:20:24;8.07;;;3.85;;
78893;SDS011;68282;42.698;23.350;2023-04-15T03:22:49;4.28;;;3.28;;
78893;SDS011;68282;42.698;23.350;2023-04-15T03:25:15;6.07;;;3.78;;
78893;SDS011;68282;42.698;23.350;2023-04-15T03:27:40;10.52;;;3.83;;
78893;SDS011;68282;42.698;23.350;2023-04-15T03:30:06;4.75;;;3.42;;
78893;SDS011;68282;42.698;23.350;2023-04-15T03:32:32;5.10;;;3.08;;
78893;SDS011;68282;42.698;23.350;2023-04-15T03:34:58;5.55;;;3.53;;
78893;SDS011;68282;42.698;23.350;2023-04-15T03:37:23;6.13;;;3.50;;
78893;SDS011;68282;42.698;23.350;2023-04-15T03:39:49;6.38;;;3.22;;
78893;SDS011;68282;42.698;23.350;2023-04-15T03:42:15;4.57;;;3.10;;
78893;SDS011;68282;42.698;23.350;2023-04-15T03:44:40;4.82;;;2.65;;
78893;SDS011;68282;42.698;23.350;2023-04-15T03:47:06;6.15;;;3.70;;
78893;SDS011;68282;42.698;23.350;2023-04-15T03:49:31;9.05;;;5.40;;
78893;SDS011;68282;42.698;23.350;2023-04-15T03:51:57;6.65;;;4.10;;
78893;SDS011;68282;42.698;23.350;2023-04-15T03:54:23;8.25;;;4.07;;
78893;SDS011;68282;42.698;23.350;2023-04-15T03:56:49;9.15;;;4.95;;
78893;SDS011;68282;42.698;23.350;2023-04-15T03:59:14;6.88;;;4.40;;
78893;SDS011;68282;42.698;23.350;2023-04-15T04:01:40;8.93;;;4.47;;
78893;SDS011;68282;42.698;23.350;2023-04-15T04:04:05;9.10;;;5.35;;
78893;SDS011;68282;42.698;23.350;2023-04-15T04:06:31;6.60;;;4.18;;
78893;SDS011;68282;42.698;23.350;2023-04-15T04:08:56;6.68;;;3.75;;
78893;SDS011;68282;42.698;23.350;2023-04-15T04:11:22;5.90;;;3.70;;
78893;SDS011;68282;42.698;23.350;2023-04-15T04:13:47;5.13;;;3.78;;
78893;SDS011;68282;42.698;23.350;2023-04-15T04:16:13;5.90;;;3.30;;
78893;SDS011;68282;42.698;23.350;2023-04-15T04:18:38;6.55;;;3.85;;
78893;SDS011;68282;42.698;23.350;2023-04-15T04:21:03;9.68;;;5.45;;
78893;SDS011;68282;42.698;23.350;2023-04-15T04:23:29;8.43;;;5.47;;
78893;SDS011;68282;42.698;23.350;2023-04-15T04:25:54;6.95;;;4.75;;
78893;SDS011;68282;42.698;23.350;2023-04-15T04:28:20;6.95;;;3.50;;
78893;SDS011;68282;42.698;23.350;2023-04-15T04:30:46;9.63;;;4.03;;
78893;SDS011;68282;42.698;23.350;2023-04-15T04:33:11;9.75;;;3.30;;
78893;SDS011;68282;42.698;23.350;2023-04-15T04:35:37;6.30;;;3.90;;
78893;SDS011;68282;42.698;23.350;2023-04-15T04:38:02;6.88;;;4.07;;
78893;SDS011;68282;42.698;23.350;2023-04-15T04:40:28;5.93;;;4.07;;
78893;SDS011;68282;42.698;23.350;2023-04-15T04:42:53;8.32;;;4.50;;
78893;SDS011;68282;42.698;23.350;2023-04-15T04:45:19;5.22;;;3.50;;
78893;SDS011;68282;42.698;23.350;2023-04-15T04:47:44;6.88;;;4.25;;
78893;SDS011;68282;42.698;23.350;2023-04-15T04:50:11;7.90;;;4.20;;
78893;SDS011;68282;42.698;23.350;2023-04-15T04:52:37;7.53;;;4.30;;
78893;SDS011;68282;42.698;23.350;2023-04-15T04:55:02;8.07;;;4.78;;
78893;SDS011;68282;42.698;23.350;2023-04-15T04:57:28;9.40;;;4.88;;
78893;SDS011;68282;42.698;23.350;2023-04-15T04:59:53;9.77;;;5.60;;
78893;SDS011;68282;42.698;23.350;2023-04-15T05:02:19;17.75;;;8.40;;
78893;SDS011;68282;42.698;23.350;2023-04-15T05:04:44;13.00;;;8.07;;
78893;SDS011;68282;42.698;23.350;2023-04-15T05:07:10;17.85;;;8.15;;
78893;SDS011;68282;42.698;23.350;2023-04-15T05:09:35;14.07;;;8.70;;
78893;SDS011;68282;42.698;23.350;2023-04-15T05:12:01;13.25;;;8.32;;
78893;SDS011;68282;42.698;23.350;2023-04-15T05:14:28;12.88;;;7.97;;
78893;SDS011;68282;42.698;23.350;2023-04-15T05:16:53;11.68;;;7.55;;
78893;SDS011;68282;42.698;23.350;2023-04-15T05:19:18;19.77;;;8.48;;
78893;SDS011;68282;42.698;23.350;2023-04-15T05:21:44;12.60;;;7.72;;
78893;SDS011;68282;42.698;23.350;2023-04-15T05:24:09;10.60;;;6.78;;
78893;SDS011;68282;42.698;23.350;2023-04-15T05:26:35;12.35;;;6.75;;
78893;SDS011;68282;42.698;23.350;2023-04-15T05:29:00;10.20;;;6.85;;
78893;SDS011;68282;42.698;23.350;2023-04-15T05:31:26;8.93;;;5.50;;
78893;SDS011;68282;42.698;23.350;2023-04-15T05:33:51;9.23;;;5.05;;
78893;SDS011;68282;42.698;23.350;2023-04-15T05:36:17;11.75;;;6.20;;
78893;SDS011;68282;42.698;23.350;2023-04-15T05:38:42;9.88;;;5.43;;
78893;SDS011;68282;42.698;23.350;2023-04-15T05:41:08;7.63;;;4.63;;
78893;SDS011;68282;42.698;23.350;2023-04-15T05:43:33;9.35;;;5.35;;
78893;SDS011;68282;42.698;23.350;2023-04-15T05:45:58;6.88;;;4.68;;
78893;SDS011;68282;42.698;23.350;2023-04-15T05:48:24;8.65;;;5.57;;
78893;SDS011;68282;42.698;23.350;2023-04-15T05:50:49;10.82;;;5.22;;
78893;SDS011;68282;42.698;23.350;2023-04-15T05:53:15;8.93;;;3.38;;
78893;SDS011;68282;42.698;23.350;2023-04-15T05:55:41;9.85;;;3.80;;
78893;SDS011;68282;42.698;23.350;2023-04-15T05:58:06;5.45;;;3.03;;
78893;SDS011;68282;42.698;23.350;2023-04-15T06:00:31;4.05;;;2.85;;
78893;SDS011;68282;42.698;23.350;2023-04-15T06:02:57;6.75;;;3.65;;
78893;SDS011;68282;42.698;23.350;2023-04-15T06:05:23;7.80;;;3.22;;
78893;SDS011;68282;42.698;23.350;2023-04-15T06:07:48;7.95;;;3.05;;
78893;SDS011;68282;42.698;23.350;2023-04-15T06:10:14;4.05;;;2.90;;
78893;SDS011;68282;42.698;23.350;2023-04-15T06:12:40;5.80;;;3.40;;
78893;SDS011;68282;42.698;23.350;2023-04-15T06:15:05;7.50;;;4.15;;
78893;SDS011;68282;42.698;23.350;2023-04-15T06:17:33;9.88;;;5.22;;
78893;SDS011;68282;42.698;23.350;2023-04-15T06:19:59;11.63;;;7.22;;
78893;SDS011;68282;42.698;23.350;2023-04-15T06:22:24;10.65;;;6.60;;
78893;SDS011;68282;42.698;23.350;2023-04-15T06:24:50;11.05;;;5.72;;
78893;SDS011;68282;42.698;23.350;2023-04-15T06:27:16;10.10;;;5.80;;
78893;SDS011;68282;42.698;23.350;2023-04-15T06:29:41;8.32;;;6.25;;
78893;SDS011;68282;42.698;23.350;2023-04-15T06:32:07;8.48;;;5.35;;
78893;SDS011;68282;42.698;23.350;2023-04-15T06:34:32;8.52;;;4.70;;
78893;SDS011;68282;42.698;23.350;2023-04-15T06:36:58;13.10;;;5.45;;
78893;SDS011;68282;42.698;23.350;2023-04-15T06:39:24;6.85;;;4.90;;
78893;SDS011;68282;42.698;23.350;2023-04-15T06:41:50;9.13;;;4.32;;
78893;SDS011;68282;42.698;23.350;2023-04-15T06:44:16;8.13;;;4.88;;
78893;SDS011;68282;42.698;23.350;2023-04-15T06:46:42;8.90;;;4.13;;
78893;SDS011;68282;42.698;23.350;2023-04-15T06:49:09;9.70;;;5.25;;
78893;SDS011;68282;42.698;23.350;2023-04-15T06:51:35;7.22;;;3.85;;
78893;SDS011;68282;42.698;23.350;2023-04-15T06:54:01;8.70;;;4.32;;
78893;SDS011;68282;42.698;23.350;2023-04-15T06:56:29;6.25;;;4.43;;
78893;SDS011;68282;42.698;23.350;2023-04-15T06:58:55;10.02;;;4.20;;
78893;SDS011;68282;42.698;23.350;2023-04-15T07:01:21;7.88;;;5.00;;
78893;SDS011;68282;42.698;23.350;2023-04-15T07:03:47;7.70;;;4.45;;
78893;SDS011;68282;42.698;23.350;2023-04-15T07:06:12;7.72;;;3.80;;
78893;SDS011;68282;42.698;23.350;2023-04-15T07:08:38;10.90;;;4.72;;
78893;SDS011;68282;42.698;23.350;2023-04-15T07:11:03;10.95;;;5.30;;
78893;SDS011;68282;42.698;23.350;2023-04-15T07:13:30;8.93;;;4.78;;
78893;SDS011;68282;42.698;23.350;2023-04-15T07:15:56;10.05;;;4.03;;
78893;SDS011;68282;42.698;23.350;2023-04-15T07:18:21;6.57;;;3.53;;
78893;SDS011;68282;42.698;23.350;2023-04-15T07:20:47;7.90;;;3.90;;
78893;SDS011;68282;42.698;23.350;2023-04-15T07:23:12;5.15;;;3.47;;
78893;SDS011;68282;42.698;23.350;2023-04-15T07:25:38;8.27;;;4.35;;
78893;SDS011;68282;42.698;23.350;2023-04-15T07:28:03;6.15;;;3.42;;
78893;SDS011;68282;42.698;23.350;2023-04-15T07:30:29;8.68;;;4.10;;
78893;SDS011;68282;42.698;23.350;2023-04-15T07:32:54;5.78;;;3.85;;
78893;SDS011;68282;42.698;23.350;2023-04-15T07:35:20;6.03;;;3.50;;
78893;SDS011;68282;42.698;23.350;2023-04-15T07:37:46;8.68;;;3.78;;
78893;SDS011;68282;42.698;23.350;2023-04-15T07:40:12;5.38;;;3.63;;
78893;SDS011;68282;42.698;23.350;2023-04-15T07:42:38;11.77;;;4.22;;
78893;SDS011;68282;42.698;23.350;2023-04-15T07:45:04;7.47;;;3.97;;
78893;SDS011;68282;42.698;23.350;2023-04-15T07:47:30;5.55;;;3.92;;
78893;SDS011;68282;42.698;23.350;2023-04-15T07:49:57;5.65;;;3.63;;
78893;SDS011;68282;42.698;23.350;2023-04-15T07:52:22;6.10;;;3.67;;
78893;SDS011;68282;42.698;23.350;2023-04-15T07:54:48;5.68;;;3.65;;
78893;SDS011;68282;42.698;23.350;2023-04-15T07:57:13;5.55;;;3.63;;
78893;SDS011;68282;42.698;23.350;2023-04-15T07:59:39;7.20;;;4.28;;
78893;SDS011;68282;42.698;23.350;2023-04-15T08:02:04;6.88;;;3.72;;
78893;SDS011;68282;42.698;23.350;2023-04-15T08:04:29;8.63;;;3.95;;
78893;SDS011;68282;42.698;23.350;2023-04-15T08:06:56;7.57;;;3.83;;
78893;SDS011;68282;42.698;23.350;2023-04-15T08:09:22;6.28;;;3.75;;
78893;SDS011;68282;42.698;23.350;2023-04-15T08:11:47;7.85;;;3.53;;
78893;SDS011;68282;42.698;23.350;2023-04-15T08:14:13;9.40;;;5.18;;
78893;SDS011;68282;42.698;23.350;2023-04-15T08:16:39;5.90;;;3.28;;
78893;SDS011;68282;42.698;23.350;2023-04-15T08:19:05;6.55;;;3.28;;
78893;SDS011;68282;42.698;23.350;2023-04-15T08:21:30;6.40;;;3.90;;
78893;SDS011;68282;42.698;23.350;2023-04-15T08:23:56;7.22;;;3.30;;
78893;SDS011;68282;42.698;23.350;2023-04-15T08:26:21;8.02;;;4.35;;
78893;SDS011;68282;42.698;23.350;2023-04-15T08:28:47;5.47;;;3.97;;
78893;SDS011;68282;42.698;23.350;2023-04-15T08:31:14;8.80;;;4.38;;
78893;SDS011;68282;42.698;23.350;2023-04-15T08:33:40;6.22;;;3.72;;
78893;SDS011;68282;42.698;23.350;2023-04-15T08:36:06;7.88;;;3.78;;
78893;SDS011;68282;42.698;23.350;2023-04-15T08:38:31;6.53;;;3.50;;
78893;SDS011;68282;42.698;23.350;2023-04-15T08:41:45;6.95;;;3.63;;
78893;SDS011;68282;42.698;23.350;2023-04-15T08:44:05;6.05;;;3.58;;
78893;SDS011;68282;42.698;23.350;2023-04-15T08:46:41;5.78;;;3.42;;
78893;SDS011;68282;42.698;23.350;2023-04-15T08:49:10;11.48;;;4.55;;
78893;SDS011;68282;42.698;23.350;2023-04-15T08:51:39;6.20;;;3.78;;
78893;SDS011;68282;42.698;23.350;2023-04-15T08:54:05;5.95;;;3.47;;
78893;SDS011;68282;42.698;23.350;2023-04-15T08:56:32;7.75;;;3.97;;
78893;SDS011;68282;42.698;23.350;2023-04-15T08:58:58;6.90;;;2.83;;
78893;SDS011;68282;42.698;23.350;2023-04-15T09:01:24;7.57;;;3.90;;
78893;SDS011;68282;42.698;23.350;2023-04-15T09:03:50;7.40;;;4.00;;
78893;SDS011;68282;42.698;23.350;2023-04-15T09:06:19;5.20;;;3.40;;
78893;SDS011;68282;42.698;23.350;2023-04-15T09:08:51;5.50;;;3.20;;
78893;SDS011;68282;42.698;23.350;2023-04-15T09:11:17;9.02;;;3.00;;
78893;SDS011;68282;42.698;23.350;2023-04-15T09:13:43;5.22;;;2.97;;
78893;SDS011;68282;42.698;23.350;2023-04-15T09:16:09;5.88;;;2.90;;
78893;SDS011;68282;42.698;23.350;2023-04-15T09:18:35;6.88;;;4.65;;
78893;SDS011;68282;42.698;23.350;2023-04-15T09:21:05;6.07;;;2.85;;
78893;SDS011;68282;42.698;23.350;2023-04-15T09:23:39;3.85;;;1.92;;
78893;SDS011;68282;42.698;23.350;2023-04-15T09:29:08;3.67;;;2.30;;
78893;SDS011;68282;42.698;23.350;2023-04-15T09:31:35;4.55;;;2.70;;
78893;SDS011;68282;42.698;23.350;2023-04-15T09:34:01;4.20;;;2.10;;
78893;SDS011;68282;42.698;23.350;2023-04-15T09:36:27;3.55;;;2.22;;
78893;SDS011;68282;42.698;23.350;2023-04-15T09:38:57;4.10;;;2.30;;
78893;SDS011;68282;42.698;23.350;2023-04-15T09:41:27;4.63;;;2.30;;
78893;SDS011;68282;42.698;23.350;2023-04-15T09:43:52;3.63;;;1.70;;
78893;SDS011;68282;42.698;23.350;2023-04-15T09:46:18;4.72;;;2.10;;
78893;SDS011;68282;42.698;23.350;2023-04-15T09:48:46;4.00;;;1.92;;
78893;SDS011;68282;42.698;23.350;2023-04-15T09:51:11;5.82;;;1.90;;
78893;SDS011;68282;42.698;23.350;2023-04-15T09:53:36;2.55;;;1.55;;
78893;SDS011;68282;42.698;23.350;2023-04-15T09:56:02;4.72;;;1.90;;
78893;SDS011;68282;42.698;23.350;2023-04-15T09:58:29;4.00;;;1.88;;
78893;SDS011;68282;42.698;23.350;2023-04-15T10:00:56;4.43;;;1.92;;
78893;SDS011;68282;42.698;23.350;2023-04-15T10:03:27;5.60;;;1.77;;
78893;SDS011;68282;42.698;23.350;2023-04-15T10:05:58;2.58;;;1.70;;
78893;SDS011;68282;42.698;23.350;2023-04-15T10:08:29;4.07;;;1.70;;
78893;SDS011;68282;42.698;23.350;2023-04-15T10:10:56;4.82;;;1.95;;
78893;SDS011;68282;42.698;23.350;2023-04-15T10:13:23;3.45;;;1.92;;
78893;SDS011;68282;42.698;23.350;2023-04-15T10:16:11;2.90;;;1.80;;
78893;SDS011;68282;42.698;23.350;2023-04-15T10:18:41;3.25;;;1.80;;
78893;SDS011;68282;42.698;23.350;2023-04-15T10:21:08;4.55;;;1.55;;
78893;SDS011;68282;42.698;23.350;2023-04-15T10:23:34;4.13;;;1.80;;
78893;SDS011;68282;42.698;23.350;2023-04-15T10:26:00;3.85;;;1.85;;
78893;SDS011;68282;42.698;23.350;2023-04-15T10:28:26;4.35;;;1.83;;
78893;SDS011;68282;42.698;23.350;2023-04-15T10:30:52;4.22;;;1.70;;
78893;SDS011;68282;42.698;23.350;2023-04-15T10:33:19;3.35;;;1.83;;
78893;SDS011;68282;42.698;23.350;2023-04-15T10:35:47;2.30;;;1.42;;
78893;SDS011;68282;42.698;23.350;2023-04-15T10:38:47;4.57;;;2.03;;
78893;SDS011;68282;42.698;23.350;2023-04-15T10:41:40;4.28;;;1.80;;
78893;SDS011;68282;42.698;23.350;2023-04-15T10:44:03;5.80;;;2.15;;
78893;SDS011;68282;42.698;23.350;2023-04-15T10:51:41;9.48;;;2.33;;
78893;SDS011;68282;42.698;23.350;2023-04-15T10:54:12;5.30;;;2.70;;
78893;SDS011;68282;42.698;23.350;2023-04-15T10:56:40;4.43;;;2.15;;
78893;SDS011;68282;42.698;23.350;2023-04-15T10:59:09;3.25;;;1.50;;
78893;SDS011;68282;42.698;23.350;2023-04-15T11:01:54;2.83;;;1.65;;
78893;SDS011;68282;42.698;23.350;2023-04-15T11:08:05;3.30;;;1.70;;
78893;SDS011;68282;42.698;23.350;2023-04-15T11:12:50;2.22;;;1.50;;
78893;SDS011;68282;42.698;23.350;2023-04-15T11:17:58;3.45;;;1.80;;
78893;SDS011;68282;42.698;23.350;2023-04-15T11:20:33;3.75;;;1.70;;
78893;SDS011;68282;42.698;23.350;2023-04-15T11:22:58;4.88;;;2.13;;
78893;SDS011;68282;42.698;23.350;2023-04-15T11:25:24;4.03;;;2.05;;
78893;SDS011;68282;42.698;23.350;2023-04-15T11:27:51;4.03;;;1.95;;
78893;SDS011;68282;42.698;23.350;2023-04-15T11:32:53;2.97;;;1.30;;
78893;SDS011;68282;42.698;23.350;2023-04-15T11:35:22;3.05;;;1.80;;
78893;SDS011;68282;42.698;23.350;2023-04-15T11:37:48;3.83;;;2.00;;
78893;SDS011;68282;42.698;23.350;2023-04-15T11:40:14;2.95;;;1.52;;
78893;SDS011;68282;42.698;23.350;2023-04-15T11:43:04;2.55;;;1.52;;
78893;SDS011;68282;42.698;23.350;2023-04-15T11:45:29;2.65;;;1.33;;
78893;SDS011;68282;42.698;23.350;2023-04-15T11:47:59;3.30;;;1.80;;
78893;SDS011;68282;42.698;23.350;2023-04-15T11:50:30;2.85;;;1.40;;
78893;SDS011;68282;42.698;23.350;2023-04-15T11:52:56;3.92;;;1.75;;
78893;SDS011;68282;42.698;23.350;2023-04-15T11:55:23;2.10;;;1.20;;
78893;SDS011;68282;42.698;23.350;2023-04-15T11:58:11;2.75;;;1.45;;
78893;SDS011;68282;42.698;23.350;2023-04-15T12:00:35;2.58;;;1.65;;
78893;SDS011;68282;42.698;23.350;2023-04-15T12:03:15;2.70;;;1.67;;
78893;SDS011;68282;42.698;23.350;2023-04-15T12:08:49;3.13;;;1.30;;
78893;SDS011;68282;42.698;23.350;2023-04-15T12:14:10;2.88;;;1.80;;
78893;SDS011;68282;42.698;23.350;2023-04-15T12:19:10;2.33;;;1.35;;
78893;SDS011;68282;42.698;23.350;2023-04-15T12:21:40;2.35;;;1.27;;
78893;SDS011;68282;42.698;23.350;2023-04-15T12:26:49;1.95;;;1.00;;
78893;SDS011;68282;42.698;23.350;2023-04-15T12:29:17;2.28;;;1.45;;
78893;SDS011;68282;42.698;23.350;2023-04-15T12:31:53;1.48;;;1.30;;
78893;SDS011;68282;42.698;23.350;2023-04-15T12:34:27;5.90;;;2.60;;
78893;SDS011;68282;42.698;23.350;2023-04-15T12:36:55;1.63;;;1.30;;
78893;SDS011;68282;42.698;23.350;2023-04-15T12:39:22;2.70;;;1.50;;
78893;SDS011;68282;42.698;23.350;2023-04-15T12:41:49;2.88;;;1.20;;
78893;SDS011;68282;42.698;23.350;2023-04-15T12:44:15;4.18;;;1.83;;
78893;SDS011;68282;42.698;23.350;2023-04-15T12:46:40;1.38;;;0.93;;
78893;SDS011;68282;42.698;23.350;2023-04-15T12:49:06;2.13;;;1.08;;
78893;SDS011;68282;42.698;23.350;2023-04-15T12:51:33;4.13;;;1.20;;
78893;SDS011;68282;42.698;23.350;2023-04-15T12:53:59;4.72;;;1.38;;
78893;SDS011;68282;42.698;23.350;2023-04-15T12:56:24;2.25;;;1.30;;
78893;SDS011;68282;42.698;23.350;2023-04-15T12:58:50;2.83;;;1.15;;
78893;SDS011;68282;42.698;23.350;2023-04-15T13:01:19;1.27;;;1.00;;
78893;SDS011;68282;42.698;23.350;2023-04-15T13:03:44;1.75;;;1.13;;
78893;SDS011;68282;42.698;23.350;2023-04-15T13:06:10;1.90;;;1.30;;
78893;SDS011;68282;42.698;23.350;2023-04-15T13:08:36;1.90;;;1.23;;
78893;SDS011;68282;42.698;23.350;2023-04-15T13:11:01;2.38;;;1.02;;
78893;SDS011;68282;42.698;23.350;2023-04-15T13:13:28;4.25;;;1.17;;
78893;SDS011;68282;42.698;23.350;2023-04-15T13:15:55;3.70;;;1.45;;
78893;SDS011;68282;42.698;23.350;2023-04-15T13:18:21;3.95;;;1.45;;
78893;SDS011;68282;42.698;23.350;2023-04-15T13:20:47;1.02;;;1.00;;
78893;SDS011;68282;42.698;23.350;2023-04-15T13:23:13;2.30;;;1.23;;
78893;SDS011;68282;42.698;23.350;2023-04-15T13:25:39;6.00;;;1.42;;
78893;SDS011;68282;42.698;23.350;2023-04-15T13:28:05;1.80;;;1.02;;
78893;SDS011;68282;42.698;23.350;2023-04-15T13:30:30;3.25;;;0.93;;
78893;SDS011;68282;42.698;23.350;2023-04-15T13:32:56;0.80;;;0.80;;
78893;SDS011;68282;42.698;23.350;2023-04-15T13:35:22;2.47;;;1.15;;
78893;SDS011;68282;42.698;23.350;2023-04-15T13:37:47;2.00;;;1.10;;
78893;SDS011;68282;42.698;23.350;2023-04-15T13:40:12;2.40;;;1.23;;
78893;SDS011;68282;42.698;23.350;2023-04-15T13:42:38;0.95;;;0.85;;
78893;SDS011;68282;42.698;23.350;2023-04-15T13:45:03;2.10;;;1.30;;
78893;SDS011;68282;42.698;23.350;2023-04-15T13:47:30;1.85;;;1.10;;
78893;SDS011;68282;42.698;23.350;2023-04-15T13:49:56;2.28;;;1.05;;
78893;SDS011;68282;42.698;23.350;2023-04-15T13:52:22;2.45;;;1.00;;
78893;SDS011;68282;42.698;23.350;2023-04-15T13:54:47;1.73;;;1.27;;
78893;SDS011;68282;42.698;23.350;2023-04-15T13:57:16;2.53;;;1.40;;
78893;SDS011;68282;42.698;23.350;2023-04-15T13:59:41;1.58;;;1.05;;
78893;SDS011;68282;42.698;23.350;2023-04-15T14:02:08;1.75;;;1.27;;
78893;SDS011;68282;42.698;23.350;2023-04-15T14:04:33;1.30;;;0.93;;
78893;SDS011;68282;42.698;23.350;2023-04-15T14:06:59;1.80;;;1.00;;
78893;SDS011;68282;42.698;23.350;2023-04-15T14:09:25;1.60;;;1.17;;
78893;SDS011;68282;42.698;23.350;2023-04-15T14:11:50;2.15;;;1.00;;
78893;SDS011;68282;42.698;23.350;2023-04-15T14:14:16;1.02;;;0.98;;
78893;SDS011;68282;42.698;23.350;2023-04-15T14:16:41;1.85;;;1.10;;
78893;SDS011;68282;42.698;23.350;2023-04-15T14:19:07;1.88;;;1.40;;
78893;SDS011;68282;42.698;23.350;2023-04-15T14:21:32;1.55;;;1.13;;
78893;SDS011;68282;42.698;23.350;2023-04-15T14:24:04;1.55;;;0.85;;
78893;SDS011;68282;42.698;23.350;2023-04-15T14:26:41;1.33;;;0.95;;
78893;SDS011;68282;42.698;23.350;2023-04-15T14:29:07;1.50;;;1.10;;
78893;SDS011;68282;42.698;23.350;2023-04-15T14:31:33;1.83;;;1.30;;
78893;SDS011;68282;42.698;23.350;2023-04-15T14:33:58;1.85;;;1.17;;
78893;SDS011;68282;42.698;23.350;2023-04-15T14:36:24;1.80;;;1.15;;
78893;SDS011;68282;42.698;23.350;2023-04-15T14:38:51;3.25;;;1.27;;
78893;SDS011;68282;42.698;23.350;2023-04-15T14:41:16;1.23;;;0.98;;
78893;SDS011;68282;42.698;23.350;2023-04-15T14:43:42;2.35;;;1.20;;
78893;SDS011;68282;42.698;23.350;2023-04-15T14:46:07;4.05;;;1.52;;
78893;SDS011;68282;42.698;23.350;2023-04-15T14:48:33;1.85;;;0.93;;
78893;SDS011;68282;42.698;23.350;2023-04-15T14:50:58;2.75;;;1.40;;
78893;SDS011;68282;42.698;23.350;2023-04-15T14:56:33;2.35;;;1.40;;
78893;SDS011;68282;42.698;23.350;2023-04-15T14:58:58;3.25;;;1.20;;
78893;SDS011;68282;42.698;23.350;2023-04-15T15:01:24;2.10;;;1.10;;
78893;SDS011;68282;42.698;23.350;2023-04-15T15:03:49;1.55;;;1.10;;